Jonesboro Municipal Airport Jonesboro US
ICAO: KJBR
IATA: JBR
Category: Medium
Scheduled Services: Yes

Elevation: 262 ft
TransAlt. 18000 ft.

Airport Communications:
ASOS:118.525
MEMPHIS CNTR:120.075
CTAF:123.6
RDO:122.2
UNICOM:123

KJBR Zoom In..

If you have problems with the map follow the link
https://www.worldairports.se/pages/airport.php?
ICAO=KJBR

Runways:

(A) RW 05 length 6200 ft width 150 ft
---- / hdg 50

(B) RW 13 length 4099 ft width 150 ft
---- / hdg 135

(C) RW 23 length 6200 ft width 150 ft
ILS 110.15 / hdg 230

(D) RW 31 length 4099 ft width 150 ft
---- / hdg 315

Location; KJBR
Day. 19 / Time. 15.53 Zulu
* Altimeter: 30.47
* Temperature: 02° c. 35.6°f.
* Wind from: 320° Speed 12 kn with Gusts up to 18 kn.
Dewpoint: -11° c.
Visibility: 10 Statute Miles.
Clouds: Clear (automated report).

KJBR 191553Z AUTO 32012G18KT 10SM CLR 02/M11 A3047 RMK AO2 SLP318 T00171106


Wind From 320°
Speed 12 kn.

 
 
jpsmedia worldairports.se 2020   terms of use